createdAt,value
2023-02-22T00:02:13.343Z,38.03
2023-02-22T00:04:41.401Z,38.14
2023-02-22T00:07:09.762Z,38.08
2023-02-22T00:09:38.001Z,38.04
2023-02-22T00:12:06.303Z,37.96
2023-02-22T00:14:34.389Z,38.05
2023-02-22T00:17:03.781Z,38.06
2023-02-22T00:19:31.974Z,37.97
2023-02-22T00:22:00.216Z,38.05
2023-02-22T00:24:29.578Z,38.03
2023-02-22T00:26:57.656Z,38.05
2023-02-22T00:29:26.814Z,37.95
2023-02-22T00:31:55.192Z,37.98
2023-02-22T00:34:24.799Z,38.00
2023-02-22T00:36:52.809Z,37.92
2023-02-22T00:39:20.843Z,38.00
2023-02-22T00:41:49.874Z,37.98
2023-02-22T00:44:18.117Z,37.88
2023-02-22T00:46:46.180Z,37.94
2023-02-22T00:49:15.460Z,37.83
2023-02-22T00:51:44.936Z,37.81
2023-02-22T00:54:14.435Z,37.98
2023-02-22T00:56:42.445Z,37.91
2023-02-22T00:59:10.447Z,37.78
2023-02-22T01:01:38.552Z,37.85
2023-02-22T01:04:06.930Z,37.79
2023-02-22T01:06:35.399Z,37.83
2023-02-22T01:09:07.776Z,37.74
2023-02-22T01:11:35.859Z,37.88
2023-02-22T01:14:03.880Z,37.70
2023-02-22T01:16:31.942Z,37.75
2023-02-22T01:19:01.454Z,37.72
2023-02-22T01:21:29.590Z,37.78
2023-02-22T01:23:57.605Z,37.68
2023-02-22T01:26:26.999Z,37.65
2023-02-22T01:28:55.140Z,37.74
2023-02-22T01:31:25.032Z,37.67
2023-02-22T01:33:53.822Z,37.76
2023-02-22T01:36:22.580Z,37.59
2023-02-22T01:38:50.622Z,37.55
2023-02-22T01:41:18.921Z,37.58
2023-02-22T01:43:48.373Z,37.55
2023-02-22T01:46:25.236Z,37.51
2023-02-22T01:48:57.896Z,37.70
2023-02-22T01:51:29.316Z,37.59
2023-02-22T01:54:03.686Z,37.61
2023-02-22T01:56:35.700Z,37.56
2023-02-22T01:59:11.359Z,37.50
2023-02-22T02:01:43.041Z,37.60
2023-02-22T02:04:13.418Z,37.58
2023-02-22T02:06:42.398Z,37.51
2023-02-22T02:09:17.540Z,37.46
2023-02-22T02:11:46.573Z,37.51
2023-02-22T02:14:16.654Z,37.51
2023-02-22T02:16:48.105Z,37.33
2023-02-22T02:19:24.962Z,37.35
2023-02-22T02:22:13.809Z,37.00
2023-02-22T02:25:08.995Z,37.08
2023-02-22T02:27:52.175Z,37.26
2023-02-22T02:30:44.543Z,36.90
2023-02-22T02:33:20.980Z,37.23
2023-02-22T02:35:58.794Z,37.18
2023-02-22T02:38:35.478Z,37.23
2023-02-22T02:41:11.913Z,37.26
2023-02-22T02:43:48.509Z,37.23
2023-02-22T02:46:22.149Z,37.23
2023-02-22T02:48:56.953Z,37.30
2023-02-22T02:51:29.760Z,37.42
2023-02-22T02:53:59.365Z,37.31
2023-02-22T02:56:27.488Z,37.43
2023-02-22T02:58:56.005Z,37.43
2023-02-22T03:01:45.962Z,37.08
2023-02-22T03:04:28.651Z,37.09
2023-02-22T03:07:11.328Z,37.13
2023-02-22T03:09:48.463Z,37.32
2023-02-22T03:12:27.785Z,37.25
2023-02-22T03:15:07.057Z,37.17
2023-02-22T03:17:47.718Z,37.11
2023-02-22T03:20:31.817Z,37.20
2023-02-22T03:23:05.627Z,37.27
2023-02-22T03:25:37.871Z,37.18
2023-02-22T03:28:11.666Z,37.21
2023-02-22T03:30:43.528Z,37.21
2023-02-22T03:33:17.087Z,37.31
2023-02-22T03:35:50.242Z,37.19
2023-02-22T03:38:20.865Z,37.20
2023-02-22T03:40:52.322Z,37.19
2023-02-22T03:43:25.043Z,37.20
2023-02-22T03:45:53.398Z,37.21
2023-02-22T03:48:26.314Z,37.20
2023-02-22T03:50:58.422Z,37.09
2023-02-22T03:53:26.992Z,37.21
2023-02-22T03:55:56.592Z,37.11
2023-02-22T03:58:28.662Z,37.20
2023-02-22T04:00:56.846Z,37.05
2023-02-22T04:03:25.348Z,37.04
2023-02-22T04:05:53.541Z,37.06
2023-02-22T04:08:22.934Z,37.07
2023-02-22T04:10:50.971Z,37.04
2023-02-22T04:13:19.102Z,37.14
2023-02-22T04:15:47.137Z,36.97
2023-02-22T04:18:15.343Z,37.08
2023-02-22T04:20:44.798Z,37.03
2023-02-22T04:23:13.174Z,37.00
2023-02-22T04:25:42.582Z,37.09
2023-02-22T04:28:10.592Z,36.99
2023-02-22T04:30:38.648Z,37.05
2023-02-22T04:33:06.760Z,37.00
2023-02-22T04:35:35.661Z,36.95
2023-02-22T04:38:04.386Z,36.99
2023-02-22T04:40:32.448Z,36.93
2023-02-22T04:43:02.120Z,37.07
2023-02-22T04:45:30.105Z,37.00
2023-02-22T04:47:58.281Z,36.87
2023-02-22T04:50:26.702Z,36.98
2023-02-22T04:52:54.833Z,36.85
2023-02-22T04:55:23.269Z,36.96
2023-02-22T04:57:51.259Z,36.76
2023-02-22T05:00:21.953Z,36.86
2023-02-22T05:02:50.550Z,36.80
2023-02-22T05:05:21.423Z,36.83
2023-02-22T05:07:50.236Z,36.74
2023-02-22T05:10:18.800Z,36.88
2023-02-22T05:12:47.058Z,36.79
2023-02-22T05:15:18.308Z,36.69
2023-02-22T05:17:47.837Z,36.82
2023-02-22T05:20:22.931Z,36.76
2023-02-22T05:22:52.098Z,36.84
2023-02-22T05:25:21.563Z,36.85
2023-02-22T05:27:53.588Z,36.84
2023-02-22T05:30:24.386Z,36.84
2023-02-22T05:32:54.147Z,36.79
2023-02-22T05:35:23.443Z,36.73
2023-02-22T05:37:51.841Z,36.61
2023-02-22T05:40:20.961Z,36.72
2023-02-22T05:42:49.390Z,36.59
2023-02-22T05:45:19.133Z,36.70
2023-02-22T05:47:47.888Z,36.69
2023-02-22T05:50:18.698Z,36.66
2023-02-22T05:52:47.341Z,36.58
2023-02-22T05:55:17.213Z,36.60
2023-02-22T05:57:45.317Z,36.59
2023-02-22T06:00:20.134Z,36.45
2023-02-22T06:02:48.152Z,36.63
2023-02-22T06:05:17.783Z,36.63
2023-02-22T06:07:45.794Z,36.57
2023-02-22T06:10:14.032Z,36.59
2023-02-22T06:12:42.542Z,36.54
2023-02-22T06:15:10.741Z,36.59
2023-02-22T06:17:39.643Z,36.62
2023-02-22T06:20:08.755Z,36.59
2023-02-22T06:22:38.171Z,36.51
2023-02-22T06:25:07.028Z,36.53
2023-02-22T06:27:35.425Z,36.53
2023-02-22T06:30:04.111Z,36.61
2023-02-22T06:32:32.993Z,36.59
2023-02-22T06:35:00.994Z,36.64
2023-02-22T06:37:28.992Z,36.55
2023-02-22T06:40:02.748Z,36.51
2023-02-22T06:42:33.297Z,36.59
2023-02-22T06:45:01.636Z,36.52
2023-02-22T06:47:29.766Z,36.59
2023-02-22T06:49:59.475Z,36.56
2023-02-22T06:52:27.561Z,36.61
2023-02-22T06:54:55.639Z,36.52
2023-02-22T06:57:25.191Z,36.70
2023-02-22T06:59:53.239Z,36.46
2023-02-22T07:02:21.258Z,36.44
2023-02-22T07:04:49.315Z,36.46
2023-02-22T07:07:17.357Z,36.62
2023-02-22T07:09:47.893Z,36.59
2023-02-22T07:12:16.058Z,36.49
2023-02-22T07:14:45.608Z,36.45
2023-02-22T07:17:13.703Z,36.42
2023-02-22T07:19:41.798Z,36.50
2023-02-22T07:22:09.865Z,36.48
2023-02-22T07:24:37.992Z,36.59
2023-02-22T07:27:06.331Z,36.44
2023-02-22T07:29:36.112Z,36.53
2023-02-22T07:32:05.818Z,36.57
2023-02-22T07:34:33.884Z,36.54
2023-02-22T07:37:01.953Z,36.56
2023-02-22T07:39:30.191Z,36.56
2023-02-22T07:41:59.332Z,36.44
2023-02-22T07:44:27.665Z,36.45
2023-02-22T07:46:55.945Z,36.43
2023-02-22T07:49:25.396Z,36.48
2023-02-22T07:51:53.482Z,36.43
2023-02-22T07:54:21.736Z,36.53
2023-02-22T07:56:50.203Z,36.60
2023-02-22T07:59:18.307Z,36.44
2023-02-22T08:01:46.364Z,36.57
2023-02-22T08:04:14.455Z,36.57
2023-02-22T08:06:46.378Z,36.54
2023-02-22T08:09:14.536Z,36.51
2023-02-22T08:11:42.899Z,36.45
2023-02-22T08:14:10.977Z,36.63
2023-02-22T08:16:39.062Z,36.52
2023-02-22T08:19:07.178Z,36.50
2023-02-22T08:21:35.280Z,36.54
2023-02-22T08:24:05.184Z,36.50
2023-02-22T08:26:33.334Z,36.50
2023-02-22T08:29:01.661Z,36.56
2023-02-22T08:31:29.808Z,36.56
2023-02-22T08:33:57.903Z,36.53
2023-02-22T08:36:25.980Z,36.48
2023-02-22T08:38:54.183Z,36.61
2023-02-22T08:41:23.738Z,36.58
2023-02-22T08:43:51.807Z,36.55
2023-02-22T08:46:19.921Z,36.47
2023-02-22T08:48:52.307Z,36.46
2023-02-22T08:51:20.646Z,36.60
2023-02-22T08:53:48.703Z,36.57
2023-02-22T08:56:16.853Z,36.50
2023-02-22T08:58:46.320Z,36.53
2023-02-22T09:01:19.306Z,36.47
2023-02-22T09:03:50.366Z,36.50
2023-02-22T09:06:18.595Z,36.58
2023-02-22T09:08:46.905Z,36.47
2023-02-22T09:11:16.357Z,36.58
2023-02-22T09:13:46.029Z,36.45
2023-02-22T09:16:14.332Z,36.54
2023-02-22T09:18:44.378Z,36.54
2023-02-22T09:21:13.655Z,36.55
2023-02-22T09:23:44.786Z,36.66
2023-02-22T09:26:16.052Z,36.49
2023-02-22T09:28:44.109Z,36.45
2023-02-22T09:31:14.212Z,36.56
2023-02-22T09:33:43.272Z,36.56
2023-02-22T09:36:11.434Z,36.50
2023-02-22T09:38:39.603Z,36.61
2023-02-22T09:41:14.675Z,36.54
2023-02-22T09:43:49.431Z,36.50
2023-02-22T09:46:31.632Z,36.38
2023-02-22T09:49:06.477Z,36.56
2023-02-22T09:51:42.954Z,36.48
2023-02-22T09:54:19.495Z,36.53
2023-02-22T09:56:50.120Z,36.61
2023-02-22T09:59:24.678Z,36.53
2023-02-22T10:02:06.732Z,36.39
2023-02-22T10:04:44.479Z,36.46
2023-02-22T10:07:19.587Z,36.55
2023-02-22T10:09:50.410Z,36.53
2023-02-22T10:12:28.988Z,36.50
2023-02-22T10:15:19.538Z,36.34
2023-02-22T10:17:58.890Z,36.44
2023-02-22T10:20:41.060Z,36.56
2023-02-22T10:23:19.063Z,36.53
2023-02-22T10:25:53.763Z,36.50
2023-02-22T10:28:27.066Z,36.50
2023-02-22T10:30:59.274Z,36.72
2023-02-22T10:33:33.396Z,36.59
2023-02-22T10:36:01.593Z,36.62
2023-02-22T10:38:33.020Z,36.65
2023-02-22T10:41:05.028Z,36.67
2023-02-22T10:43:33.486Z,36.56
2023-02-22T10:46:03.964Z,36.71
2023-02-22T10:48:38.223Z,36.67
2023-02-22T10:51:09.720Z,36.71
2023-02-22T10:53:39.934Z,36.57
2023-02-22T10:56:12.813Z,36.68
2023-02-22T10:58:43.745Z,36.58
2023-02-22T11:01:23.766Z,36.44
2023-02-22T11:04:01.886Z,36.56
2023-02-22T11:06:30.715Z,36.67
2023-02-22T11:09:13.569Z,36.39
2023-02-22T11:11:43.809Z,36.72
2023-02-22T11:14:13.051Z,36.62
2023-02-22T11:16:48.119Z,36.72
2023-02-22T11:19:24.096Z,36.48
2023-02-22T11:21:54.356Z,36.72
2023-02-22T11:24:30.262Z,36.61
2023-02-22T11:27:03.625Z,36.63
2023-02-22T11:29:35.781Z,36.74
2023-02-22T11:32:13.636Z,36.69
2023-02-22T11:34:43.932Z,36.69
2023-02-22T11:37:29.381Z,36.55
2023-02-22T11:40:19.860Z,36.40
2023-02-22T11:42:48.763Z,36.63
2023-02-22T11:45:20.928Z,36.63
2023-02-22T11:47:59.114Z,36.57
2023-02-22T11:50:34.641Z,36.62
2023-02-22T11:53:25.394Z,36.65
2023-02-22T11:56:09.524Z,36.67
2023-02-22T11:58:46.757Z,36.63
2023-02-22T12:01:24.512Z,36.67
2023-02-22T12:04:30.148Z,36.52
2023-02-22T12:07:15.604Z,36.60
2023-02-22T12:09:49.553Z,36.84
2023-02-22T12:12:26.952Z,36.65
2023-02-22T12:15:02.171Z,36.88
2023-02-22T12:17:54.248Z,36.75
2023-02-22T12:20:39.846Z,36.74
2023-02-22T12:23:20.790Z,36.71
2023-02-22T12:26:00.239Z,36.74
2023-02-22T12:28:35.663Z,36.71
2023-02-22T12:31:16.900Z,36.67
2023-02-22T12:33:54.211Z,36.62
2023-02-22T12:36:29.477Z,36.83
2023-02-22T12:39:07.465Z,36.82
2023-02-22T12:41:41.579Z,36.87
2023-02-22T12:44:17.396Z,36.72
2023-02-22T12:46:50.079Z,36.73
2023-02-22T12:49:28.318Z,36.77
2023-02-22T12:52:15.813Z,36.79
2023-02-22T12:54:57.414Z,36.78
2023-02-22T12:57:37.195Z,36.86
2023-02-22T13:00:11.785Z,36.87
2023-02-22T13:02:45.281Z,36.81
2023-02-22T13:05:17.903Z,36.80
2023-02-22T13:07:55.176Z,36.80
2023-02-22T13:10:43.844Z,36.59
2023-02-22T13:13:20.149Z,36.68
2023-02-22T13:15:54.898Z,36.81
2023-02-22T13:18:30.555Z,36.79
2023-02-22T13:21:06.583Z,36.81
2023-02-22T13:23:45.811Z,36.79
2023-02-22T13:26:25.491Z,36.68
2023-02-22T13:29:03.687Z,36.63
2023-02-22T13:31:53.189Z,36.74
2023-02-22T13:34:46.204Z,36.64
2023-02-22T13:37:25.394Z,36.69
2023-02-22T13:40:20.030Z,36.67
2023-02-22T13:43:12.312Z,36.67
2023-02-22T13:46:12.800Z,36.55
2023-02-22T13:49:18.600Z,36.56
2023-02-22T13:51:52.824Z,36.70
2023-02-22T13:54:29.755Z,36.82
2023-02-22T13:56:58.790Z,36.87
2023-02-22T13:59:36.064Z,36.81
2023-02-22T14:02:08.103Z,36.85
2023-02-22T14:04:44.147Z,36.74
2023-02-22T14:07:57.138Z,36.59
2023-02-22T14:10:47.789Z,36.52
2023-02-22T14:13:17.233Z,36.81
2023-02-22T14:16:24.412Z,36.65
2023-02-22T14:19:06.669Z,36.68
2023-02-22T14:21:35.874Z,36.83
2023-02-22T14:24:13.710Z,36.87
2023-02-22T14:26:42.646Z,36.83
2023-02-22T14:29:19.203Z,36.84
2023-02-22T14:32:15.192Z,36.58
2023-02-22T14:34:50.777Z,36.78
2023-02-22T14:37:25.043Z,36.83
2023-02-22T14:39:58.516Z,36.89
2023-02-22T14:42:32.025Z,36.83
2023-02-22T14:45:05.025Z,36.94
2023-02-22T14:47:43.950Z,36.83
2023-02-22T14:50:21.318Z,36.81
2023-02-22T14:52:57.240Z,36.87
2023-02-22T14:55:27.713Z,36.80
2023-02-22T14:58:04.878Z,36.87
2023-02-22T15:00:42.025Z,36.89
2023-02-22T15:03:29.319Z,36.73
2023-02-22T15:06:00.254Z,36.87
2023-02-22T15:08:28.629Z,36.81
2023-02-22T15:10:56.808Z,36.75
2023-02-22T15:13:27.377Z,36.96
2023-02-22T15:16:00.483Z,36.89
2023-02-22T15:18:35.199Z,36.78
2023-02-22T15:21:10.508Z,36.90
2023-02-22T15:23:45.397Z,36.79
2023-02-22T15:26:23.873Z,36.75
2023-02-22T15:28:55.823Z,36.81
2023-02-22T15:31:31.535Z,36.76
2023-02-22T15:34:12.235Z,36.60
2023-02-22T15:36:40.410Z,36.78
2023-02-22T15:39:20.477Z,36.75
2023-02-22T15:41:48.563Z,36.81
2023-02-22T15:44:23.746Z,36.86
2023-02-22T15:46:54.516Z,36.85
2023-02-22T15:49:25.907Z,36.94
2023-02-22T15:52:05.575Z,36.73
2023-02-22T15:54:42.180Z,36.90
2023-02-22T15:57:10.679Z,36.79
2023-02-22T15:59:44.937Z,36.89
2023-02-22T16:02:30.377Z,36.95
2023-02-22T16:05:06.612Z,36.87
2023-02-22T16:07:45.347Z,36.92
2023-02-22T16:10:23.966Z,36.72
2023-02-22T16:13:19.090Z,36.77
2023-02-22T16:15:58.177Z,36.80
2023-02-22T16:18:31.420Z,36.93
2023-02-22T16:21:03.647Z,36.85
2023-02-22T16:23:33.657Z,36.76
2023-02-22T16:26:07.606Z,36.92
2023-02-22T16:28:36.047Z,36.90
2023-02-22T16:31:04.901Z,36.91
2023-02-22T16:33:34.061Z,36.98
2023-02-22T16:36:08.369Z,36.79
2023-02-22T16:38:38.563Z,36.93
2023-02-22T16:41:08.173Z,36.82
2023-02-22T16:43:36.870Z,36.95
2023-02-22T16:46:07.068Z,36.86
2023-02-22T16:48:38.262Z,36.92
2023-02-22T16:51:17.669Z,36.77
2023-02-22T16:53:45.860Z,36.79
2023-02-22T16:56:17.815Z,36.81
2023-02-22T16:58:49.768Z,36.82
2023-02-22T17:01:18.992Z,36.91
2023-02-22T17:03:47.985Z,36.86
2023-02-22T17:06:18.566Z,36.82
2023-02-22T17:08:46.974Z,36.84
2023-02-22T17:11:16.050Z,36.84
2023-02-22T17:13:51.661Z,37.02
2023-02-22T17:16:20.194Z,36.82
2023-02-22T17:18:48.443Z,36.72
2023-02-22T17:21:17.984Z,36.80
2023-02-22T17:23:47.085Z,36.77
2023-02-22T17:26:16.299Z,36.75
2023-02-22T17:28:45.176Z,36.84
2023-02-22T17:31:21.813Z,36.64
2023-02-22T17:33:51.420Z,36.76
2023-02-22T17:36:21.147Z,36.75
2023-02-22T17:38:50.083Z,36.80
2023-02-22T17:41:18.264Z,36.77
2023-02-22T17:43:46.412Z,36.76
2023-02-22T17:46:15.065Z,36.99
2023-02-22T17:48:43.229Z,36.70
2023-02-22T17:51:13.435Z,36.74
2023-02-22T17:53:42.965Z,36.66
2023-02-22T17:56:13.719Z,36.80
2023-02-22T17:58:41.975Z,36.78
2023-02-22T18:01:21.079Z,36.62
2023-02-22T18:03:49.529Z,36.75
2023-02-22T18:06:23.188Z,36.71
2023-02-22T18:08:56.029Z,36.80
2023-02-22T18:11:26.884Z,36.81
2023-02-22T18:13:55.578Z,36.73
2023-02-22T18:16:25.602Z,36.80
2023-02-22T18:18:54.185Z,36.85
2023-02-22T18:21:22.506Z,36.80
2023-02-22T18:23:50.647Z,36.80
2023-02-22T18:26:21.768Z,36.72
2023-02-22T18:28:50.033Z,36.72
2023-02-22T18:31:21.597Z,36.74
2023-02-22T18:33:51.137Z,36.91
2023-02-22T18:36:23.292Z,36.72
2023-02-22T18:38:53.173Z,36.74
2023-02-22T18:41:26.314Z,36.73
2023-02-22T18:43:55.595Z,36.75
2023-02-22T18:46:25.470Z,36.86
2023-02-22T18:48:56.006Z,36.72
2023-02-22T18:51:24.885Z,36.69
2023-02-22T18:53:57.014Z,36.80
2023-02-22T18:56:29.968Z,36.79
2023-02-22T18:58:59.988Z,36.83
2023-02-22T19:01:28.876Z,36.90
2023-02-22T19:03:56.956Z,36.92
2023-02-22T19:06:25.203Z,36.80
2023-02-22T19:08:54.275Z,36.80
2023-02-22T19:11:25.116Z,36.88
2023-02-22T19:13:57.832Z,36.87
2023-02-22T19:16:28.379Z,36.86
2023-02-22T19:18:58.325Z,36.79
2023-02-22T19:21:27.865Z,36.73
2023-02-22T19:23:55.991Z,36.91
2023-02-22T19:26:26.343Z,36.79
2023-02-22T19:28:58.645Z,36.79
2023-02-22T19:31:31.093Z,36.76
2023-02-22T19:34:02.630Z,36.89
2023-02-22T19:36:30.788Z,36.82
2023-02-22T19:39:01.772Z,36.83
2023-02-22T19:41:30.915Z,36.74
2023-02-22T19:44:00.924Z,36.81
2023-02-22T19:46:29.383Z,36.88
2023-02-22T19:48:57.593Z,36.78
2023-02-22T19:51:28.248Z,36.79
2023-02-22T19:53:59.902Z,36.72
2023-02-22T19:56:28.593Z,36.88
2023-02-22T19:58:58.402Z,36.88
2023-02-22T20:01:33.022Z,36.96
2023-02-22T20:04:05.910Z,36.92
2023-02-22T20:06:40.271Z,36.89
2023-02-22T20:09:09.159Z,36.87
2023-02-22T20:11:37.240Z,36.74
2023-02-22T20:14:06.551Z,36.73
2023-02-22T20:16:36.537Z,36.85
2023-02-22T20:19:05.053Z,36.77
2023-02-22T20:21:36.456Z,36.76
2023-02-22T20:24:07.594Z,36.87
2023-02-22T20:26:37.377Z,36.79
2023-02-22T20:29:06.820Z,36.95
2023-02-22T20:31:36.534Z,36.78
2023-02-22T20:34:06.425Z,36.86
2023-02-22T20:36:36.149Z,36.93
2023-02-22T20:39:13.278Z,36.88
2023-02-22T20:41:42.923Z,36.82
2023-02-22T20:44:13.591Z,36.87
2023-02-22T20:46:44.141Z,36.93
2023-02-22T20:49:14.934Z,36.81
2023-02-22T20:51:43.164Z,36.91
2023-02-22T20:54:12.443Z,36.94
2023-02-22T20:56:42.757Z,36.94
2023-02-22T20:59:13.216Z,36.79
2023-02-22T21:01:43.201Z,36.98
2023-02-22T21:04:12.174Z,36.93
2023-02-22T21:06:41.829Z,36.86
2023-02-22T21:09:14.345Z,36.92
2023-02-22T21:11:42.935Z,36.94
2023-02-22T21:14:12.494Z,37.05
2023-02-22T21:16:40.624Z,37.00
2023-02-22T21:19:11.685Z,36.94
2023-02-22T21:21:39.694Z,36.96
2023-02-22T21:24:08.646Z,36.82
2023-02-22T21:26:36.747Z,36.87
2023-02-22T21:29:07.267Z,36.93
2023-02-22T21:31:37.820Z,37.01
2023-02-22T21:34:05.944Z,36.91
2023-02-22T21:36:35.428Z,36.88
2023-02-22T21:39:18.080Z,36.89
2023-02-22T21:41:46.991Z,36.74
2023-02-22T21:44:15.609Z,37.17
2023-02-22T21:46:44.026Z,36.87
2023-02-22T21:49:12.481Z,36.89
2023-02-22T21:51:44.789Z,36.89
2023-02-22T21:54:14.144Z,36.91
2023-02-22T21:56:44.175Z,36.71
2023-02-22T21:59:14.842Z,36.98
2023-02-22T22:01:47.215Z,36.89
2023-02-22T22:04:18.987Z,36.90
2023-02-22T22:06:50.971Z,36.83
2023-02-22T22:09:19.913Z,37.11
2023-02-22T22:11:49.714Z,36.97
2023-02-22T22:14:18.740Z,37.01
2023-02-22T22:16:50.834Z,37.01
2023-02-22T22:19:19.091Z,36.99
2023-02-22T22:21:50.111Z,37.01
2023-02-22T22:24:20.576Z,36.88
2023-02-22T22:26:51.199Z,36.85
2023-02-22T22:29:19.858Z,37.03
2023-02-22T22:31:48.339Z,36.92
2023-02-22T22:34:16.783Z,36.95
2023-02-22T22:36:45.764Z,36.93
2023-02-22T22:39:15.275Z,36.87
2023-02-22T22:41:45.299Z,37.02
2023-02-22T22:44:15.514Z,36.97
2023-02-22T22:46:49.149Z,37.01
2023-02-22T22:49:18.519Z,36.99
2023-02-22T22:51:47.532Z,37.02
2023-02-22T22:54:17.258Z,36.87
2023-02-22T22:56:45.329Z,36.94
2023-02-22T22:59:13.566Z,36.88
2023-02-22T23:01:44.730Z,36.96
2023-02-22T23:04:16.420Z,36.95
2023-02-22T23:06:46.169Z,36.81
2023-02-22T23:09:19.555Z,36.93
2023-02-22T23:11:51.092Z,36.97
2023-02-22T23:14:21.096Z,36.86
2023-02-22T23:16:50.129Z,36.95
2023-02-22T23:19:19.382Z,36.85
2023-02-22T23:21:48.902Z,36.83
2023-02-22T23:24:21.112Z,36.94
2023-02-22T23:26:50.061Z,36.99
2023-02-22T23:29:19.333Z,36.92
2023-02-22T23:31:49.086Z,36.89
2023-02-22T23:34:17.949Z,36.80
2023-02-22T23:36:46.854Z,36.84
2023-02-22T23:39:17.324Z,37.00
2023-02-22T23:41:47.316Z,36.94
2023-02-22T23:44:17.836Z,36.91
2023-02-22T23:46:48.445Z,36.90
2023-02-22T23:49:20.308Z,36.86
2023-02-22T23:51:49.177Z,36.98
2023-02-22T23:54:20.412Z,36.83
2023-02-22T23:56:56.901Z,36.87
2023-02-22T23:59:26.418Z,36.96
